Terminal Aerodrome Forecast
Issued by NWS

Home | Current Version | Previous Version | Graphics & Text | Print | Product List | Glossary On
Versions: 1 2 3 4 5 6 7 8 9 10 11 12 13 14 15 16 17 18 19 20 21
000
FTUS45 KGGW 010500
TAFSDY
TAF
KSDY 010531Z 0106/0206 VRB05KT 6SM HZ VCSH BKN070
     FM011200 VRB06KT 6SM HZ BKN014
     FM011800 VRB05KT 6SM HZ VCSH BKN060
      AMD LTD TO CLD VIS AND WIND=

USA.gov is the U.S. government's official web portal to all federal, state and local government web resources and services.